Pagrindinis puslapis
METAR-TAF:

METAR-TAF

Oro uostai :

Trapanis, Italija

platuma: 37-55N, ilguma: 012-30E, Aukštis: 7 m

Dabartinis oras

Ataskaita buvo paskelbta 36 minutes, ne 18:55 UTC
Vėjas 4 kt iš Šiaurės
Temperatūra 25°C
Drėgmė 83%
Slėgis 1015 hPa
Matomumas 10 km arba daugiau
Mažai debesys ne aukštis 1500 ft

METAR: LICT 191855Z 35004KT 9999 FEW015 25/22 Q1015 RMK FEW VIS MIN 9999 WIND THR13 32005KT BLU

Laikas: 21:31 (19:31 UTC)

Prognozė

Ataskaita buvo paskelbta 2 valandos ir 31 minutes, ne 17:00 UTC
Prognozė galioja nuo 19 metu 18 UTC su 20 metu 03 UTC
Vėjas 6 kt iš Vakarų/Pietvakarių
Matomumas 10 km arba daugiau
Išsisklaidę debesys ne aukštis 1500 ft
Laikinai
nuo 19 metu 18 UTC su 19 metu 20 UTC
Mažai debesys ne aukštis 1500 ft, aukštai iškilę kamuoliniai debesys.
Išsisklaidę debesys ne aukštis 2000 ft

TAF: LICT 191700Z 1918/2003 25006KT 9999 SCT015 TEMPO 1918/1920 FEW015TCU SCT020

Orai ataskaitas ir orų prognozės (METAR, TAF).

turimą stotys yra geltonos ir raudonos taškus žemėlapyje.

Perkelti pele per norėdami pamatyti stoties vardą.

Tada spustelėkite, norėdami matyti oro stebėjimo ir prognozės.

Norėdami pakeisti žemėlapį: spustelėkite ant žalios mygtukų su juodo kryžiaus žemyn,; žalią mygtuką su brūkšneliu, jei norite nutolinti; arba žalių rodyklių gretimoms žemėlapius.


METAR-TAF: